createdAt,value
2018-12-31T00:01:04.899Z,3.63
2018-12-31T00:03:32.323Z,3.10
2018-12-31T00:05:59.622Z,3.10
2018-12-31T00:08:26.903Z,3.30
2018-12-31T00:10:54.258Z,2.50
2018-12-31T00:13:21.506Z,2.43
2018-12-31T00:15:48.899Z,3.60
2018-12-31T00:18:16.250Z,3.30
2018-12-31T00:20:43.543Z,3.20
2018-12-31T00:23:10.935Z,3.33
2018-12-31T00:25:38.215Z,2.87
2018-12-31T00:28:05.583Z,3.70
2018-12-31T00:30:32.947Z,3.70
2018-12-31T00:33:00.206Z,3.20
2018-12-31T00:35:27.492Z,3.50
2018-12-31T00:37:54.755Z,4.03
2018-12-31T00:40:21.995Z,4.30
2018-12-31T00:42:49.406Z,3.67
2018-12-31T00:45:16.662Z,5.07
2018-12-31T00:47:43.953Z,5.07
2018-12-31T00:50:11.354Z,4.73
2018-12-31T00:52:38.614Z,3.73
2018-12-31T00:55:05.958Z,3.30
2018-12-31T00:57:33.346Z,2.83
2018-12-31T01:00:00.758Z,3.70
2018-12-31T01:02:28.135Z,3.13
2018-12-31T01:04:55.519Z,3.10
2018-12-31T01:07:22.835Z,3.50
2018-12-31T01:09:50.079Z,2.87
2018-12-31T01:12:17.350Z,2.60
2018-12-31T01:14:44.710Z,3.40
2018-12-31T01:17:12.038Z,4.07
2018-12-31T01:19:39.420Z,4.20
2018-12-31T01:22:06.879Z,4.33
2018-12-31T01:24:34.122Z,4.33
2018-12-31T01:27:01.403Z,3.83
2018-12-31T01:29:28.669Z,4.80
2018-12-31T01:31:56.042Z,4.57
2018-12-31T01:34:23.476Z,5.30
2018-12-31T01:36:50.882Z,5.67
2018-12-31T01:39:18.230Z,5.63
2018-12-31T01:41:45.735Z,4.70
2018-12-31T01:44:13.058Z,5.20
2018-12-31T01:46:40.442Z,5.57
2018-12-31T01:49:07.923Z,4.67
2018-12-31T01:51:35.203Z,4.37
2018-12-31T01:54:02.560Z,4.20
2018-12-31T01:56:29.848Z,5.10
2018-12-31T01:58:57.103Z,5.20
2018-12-31T02:01:24.398Z,5.63
2018-12-31T02:03:51.835Z,5.10
2018-12-31T02:06:19.828Z,4.87
2018-12-31T02:08:47.316Z,5.30
2018-12-31T02:11:14.573Z,5.47
2018-12-31T02:13:42.067Z,5.23
2018-12-31T02:16:09.326Z,5.07
2018-12-31T02:18:36.687Z,5.17
2018-12-31T02:21:03.957Z,5.43
2018-12-31T02:23:31.431Z,5.87
2018-12-31T02:25:58.803Z,4.90
2018-12-31T02:28:26.399Z,5.40
2018-12-31T02:30:53.748Z,6.03
2018-12-31T02:33:21.110Z,6.10
2018-12-31T02:35:48.480Z,5.20
2018-12-31T02:38:15.855Z,5.47
2018-12-31T02:40:43.280Z,4.83
2018-12-31T02:43:10.659Z,4.70
2018-12-31T02:45:38.014Z,4.60
2018-12-31T02:48:05.397Z,4.83
2018-12-31T02:50:32.788Z,4.13
2018-12-31T02:53:00.175Z,4.53
2018-12-31T02:55:27.551Z,6.03
2018-12-31T02:57:54.957Z,5.47
2018-12-31T03:00:22.804Z,4.27
2018-12-31T03:02:50.175Z,5.57
2018-12-31T03:05:17.543Z,4.67
2018-12-31T03:07:44.930Z,4.53
2018-12-31T03:10:12.428Z,5.13
2018-12-31T03:12:39.843Z,5.13
2018-12-31T03:15:08.116Z,4.83
2018-12-31T03:17:35.531Z,5.27
2018-12-31T03:20:03.157Z,4.60
2018-12-31T03:22:30.403Z,5.30
2018-12-31T03:24:57.803Z,5.03
2018-12-31T03:27:25.272Z,5.00
2018-12-31T03:29:52.655Z,6.20
2018-12-31T03:32:20.034Z,5.43
2018-12-31T03:34:47.432Z,5.10
2018-12-31T03:37:15.170Z,4.90
2018-12-31T03:39:42.476Z,5.40
2018-12-31T03:42:09.902Z,4.70
2018-12-31T03:44:37.346Z,5.67
2018-12-31T03:47:04.839Z,5.03
2018-12-31T03:49:32.206Z,4.70
2018-12-31T03:51:59.573Z,5.03
2018-12-31T03:54:26.954Z,4.73
2018-12-31T03:56:54.330Z,4.60
2018-12-31T03:59:21.573Z,7.30
2018-12-31T04:01:48.862Z,5.10
2018-12-31T04:04:16.235Z,5.30
2018-12-31T04:06:43.507Z,4.93
2018-12-31T04:09:10.780Z,4.20
2018-12-31T04:11:38.164Z,4.03
2018-12-31T04:14:05.531Z,5.13
2018-12-31T04:16:32.823Z,4.27
2018-12-31T04:19:00.191Z,5.33
2018-12-31T04:21:27.666Z,4.90
2018-12-31T04:23:55.063Z,4.10
2018-12-31T04:26:22.661Z,4.60
2018-12-31T04:28:50.015Z,5.00
2018-12-31T04:31:17.373Z,5.90
2018-12-31T04:33:44.765Z,4.83
2018-12-31T04:36:12.139Z,4.47
2018-12-31T04:38:39.519Z,4.20
2018-12-31T04:41:06.778Z,6.00
2018-12-31T04:43:34.270Z,4.70
2018-12-31T04:46:01.636Z,4.07
2018-12-31T04:48:28.998Z,4.90
2018-12-31T04:50:56.370Z,4.90
2018-12-31T04:53:24.283Z,3.97
2018-12-31T04:55:51.650Z,3.63
2018-12-31T04:58:23.007Z,4.47
2018-12-31T05:00:48.316Z,4.30
2018-12-31T05:03:15.727Z,4.53
2018-12-31T05:05:43.010Z,4.47
2018-12-31T05:08:10.403Z,4.10
2018-12-31T05:10:37.772Z,5.43
2018-12-31T05:13:05.015Z,3.73
2018-12-31T05:15:32.585Z,5.03
2018-12-31T05:18:00.080Z,3.80
2018-12-31T05:20:27.420Z,5.27
2018-12-31T05:22:54.776Z,4.70
2018-12-31T05:25:22.140Z,4.60
2018-12-31T05:27:49.507Z,4.50
2018-12-31T05:30:16.759Z,5.07
2018-12-31T05:32:44.015Z,3.70
2018-12-31T05:35:11.263Z,4.70
2018-12-31T05:37:38.631Z,4.30
2018-12-31T05:40:06.370Z,4.23
2018-12-31T05:42:33.747Z,4.07
2018-12-31T05:45:01.073Z,6.07
2018-12-31T05:47:28.511Z,5.10
2018-12-31T05:49:55.862Z,4.33
2018-12-31T05:52:23.327Z,4.10
2018-12-31T05:54:50.611Z,5.20
2018-12-31T05:57:18.059Z,4.40
2018-12-31T05:59:45.482Z,4.97
2018-12-31T06:02:12.785Z,4.97
2018-12-31T06:04:40.223Z,4.50
2018-12-31T06:07:07.591Z,3.97
2018-12-31T06:09:36.655Z,5.40
2018-12-31T06:12:04.099Z,3.80
2018-12-31T06:14:31.374Z,3.50
2018-12-31T06:16:58.640Z,4.63
2018-12-31T06:19:25.999Z,4.20
2018-12-31T06:21:53.270Z,5.00
2018-12-31T06:24:20.638Z,5.60
2018-12-31T06:26:47.972Z,7.80
2018-12-31T06:29:15.373Z,8.70
2018-12-31T06:31:42.743Z,4.80
2018-12-31T06:34:10.123Z,6.30
2018-12-31T06:36:37.379Z,5.47
2018-12-31T06:39:06.824Z,4.60
2018-12-31T06:41:34.204Z,6.20
2018-12-31T06:44:01.467Z,5.60
2018-12-31T06:46:28.838Z,5.93
2018-12-31T06:48:56.191Z,6.60
2018-12-31T06:51:23.474Z,6.27
2018-12-31T06:53:50.886Z,6.30
2018-12-31T06:56:18.160Z,7.57
2018-12-31T06:58:45.556Z,6.40
2018-12-31T07:01:12.829Z,5.93
2018-12-31T07:03:40.075Z,5.10
2018-12-31T07:06:07.346Z,5.30
2018-12-31T07:08:34.659Z,6.43
2018-12-31T07:11:02.472Z,5.40
2018-12-31T07:13:29.848Z,6.60
2018-12-31T07:15:57.110Z,5.37
2018-12-31T07:18:24.459Z,6.20
2018-12-31T07:20:51.947Z,8.43
2018-12-31T07:23:19.306Z,7.40
2018-12-31T07:25:46.682Z,6.53
2018-12-31T07:28:13.958Z,6.40
2018-12-31T07:30:41.243Z,7.30
2018-12-31T07:33:08.597Z,9.13
2018-12-31T07:35:35.911Z,8.37
2018-12-31T07:38:03.178Z,9.40
2018-12-31T07:40:30.475Z,8.70
2018-12-31T07:42:57.826Z,7.30
2018-12-31T07:45:25.203Z,5.60
2018-12-31T07:47:52.558Z,4.87
2018-12-31T07:50:19.818Z,4.93
2018-12-31T07:52:47.139Z,5.10
2018-12-31T07:55:14.538Z,4.97
2018-12-31T07:57:42.199Z,4.90
2018-12-31T08:00:09.719Z,4.70
2018-12-31T08:02:36.967Z,4.93
2018-12-31T08:05:17.269Z,5.20
2018-12-31T08:07:44.522Z,5.10
2018-12-31T08:10:11.841Z,4.57
2018-12-31T08:12:39.107Z,5.00
2018-12-31T08:15:21.848Z,4.03
2018-12-31T08:17:49.102Z,4.40
2018-12-31T08:20:16.451Z,3.97
2018-12-31T08:22:43.714Z,3.87
2018-12-31T08:25:10.979Z,4.27
2018-12-31T08:27:38.356Z,3.90
2018-12-31T08:30:05.663Z,4.57
2018-12-31T08:32:32.946Z,4.60
2018-12-31T08:35:00.235Z,3.77
2018-12-31T08:37:27.555Z,3.50
2018-12-31T08:39:54.915Z,3.70
2018-12-31T08:42:22.299Z,3.30
2018-12-31T08:44:49.582Z,3.50
2018-12-31T08:47:16.958Z,3.40
2018-12-31T08:49:44.306Z,3.40
2018-12-31T08:52:11.672Z,3.70
2018-12-31T08:54:38.910Z,3.80
2018-12-31T08:57:06.200Z,3.83
2018-12-31T08:59:33.671Z,3.60
2018-12-31T09:02:01.613Z,3.13
2018-12-31T09:04:29.112Z,2.70
2018-12-31T09:06:56.470Z,3.10
2018-12-31T09:09:23.886Z,2.60
2018-12-31T09:11:51.258Z,3.27
2018-12-31T09:14:18.635Z,3.17
2018-12-31T09:16:46.019Z,3.37
2018-12-31T09:19:13.268Z,3.67
2018-12-31T09:21:40.509Z,3.00
2018-12-31T09:24:07.871Z,2.90
2018-12-31T09:26:35.138Z,3.60
2018-12-31T09:29:02.367Z,2.93
2018-12-31T09:31:29.626Z,3.10
2018-12-31T09:33:57.004Z,2.67
2018-12-31T09:36:24.246Z,2.33
2018-12-31T09:38:51.728Z,2.60
2018-12-31T09:41:19.068Z,2.40
2018-12-31T09:43:46.427Z,3.10
2018-12-31T09:46:13.726Z,3.37
2018-12-31T09:48:41.012Z,3.07
2018-12-31T09:51:08.295Z,3.30
2018-12-31T09:53:35.559Z,2.83
2018-12-31T09:56:02.906Z,3.10
2018-12-31T09:58:30.259Z,3.20
2018-12-31T10:00:57.606Z,2.87
2018-12-31T10:03:24.911Z,3.47
2018-12-31T10:05:52.291Z,3.07
2018-12-31T10:08:20.160Z,3.40
2018-12-31T10:10:47.640Z,3.60
2018-12-31T10:13:14.959Z,3.70
2018-12-31T10:15:42.208Z,3.30
2018-12-31T10:18:09.478Z,2.90
2018-12-31T10:20:36.754Z,3.57
2018-12-31T10:23:04.021Z,3.00
2018-12-31T10:25:31.270Z,2.77
2018-12-31T10:27:58.618Z,2.90
2018-12-31T10:30:25.887Z,3.67
2018-12-31T10:32:53.133Z,3.40
2018-12-31T10:35:20.510Z,3.30
2018-12-31T10:37:47.878Z,3.10
2018-12-31T10:40:15.129Z,3.60
2018-12-31T10:42:42.383Z,3.90
2018-12-31T10:45:09.642Z,3.70
2018-12-31T10:47:36.914Z,3.73
2018-12-31T10:50:04.495Z,3.90
2018-12-31T10:52:31.767Z,4.00
2018-12-31T10:54:59.002Z,4.97
2018-12-31T10:57:26.263Z,5.00
2018-12-31T10:59:53.622Z,4.70
2018-12-31T11:02:20.994Z,3.90
2018-12-31T11:04:48.375Z,4.50
2018-12-31T11:07:15.652Z,4.10
2018-12-31T11:09:43.015Z,3.70
2018-12-31T11:12:10.327Z,4.00
2018-12-31T11:14:37.635Z,4.17
2018-12-31T11:17:05.016Z,4.73
2018-12-31T11:19:33.496Z,3.80
2018-12-31T11:22:01.084Z,3.50
2018-12-31T11:24:28.755Z,4.40
2018-12-31T11:26:56.037Z,3.77
2018-12-31T11:29:23.318Z,4.07
2018-12-31T11:31:50.699Z,4.07
2018-12-31T11:34:18.078Z,4.27
2018-12-31T11:36:45.364Z,3.57
2018-12-31T11:39:12.610Z,5.13
2018-12-31T11:41:39.971Z,3.43
2018-12-31T11:44:07.227Z,3.30
2018-12-31T11:46:34.506Z,3.97
2018-12-31T11:49:01.791Z,3.87
2018-12-31T11:51:29.059Z,3.93
2018-12-31T11:53:56.411Z,3.70
2018-12-31T11:56:23.787Z,3.50
2018-12-31T11:58:51.145Z,3.23
2018-12-31T12:01:18.822Z,3.10
2018-12-31T12:03:46.138Z,2.90
2018-12-31T12:06:13.506Z,3.60
2018-12-31T12:08:40.747Z,3.30
2018-12-31T12:11:08.059Z,3.90
2018-12-31T12:13:35.434Z,3.87
2018-12-31T12:16:02.810Z,3.40
2018-12-31T12:18:30.265Z,3.50
2018-12-31T12:20:57.635Z,3.47
2018-12-31T12:23:24.982Z,3.90
2018-12-31T12:25:52.755Z,4.10
2018-12-31T12:28:20.186Z,4.07
2018-12-31T12:30:47.571Z,3.50
2018-12-31T12:33:14.800Z,3.87
2018-12-31T12:35:42.055Z,3.47
2018-12-31T12:38:09.395Z,3.70
2018-12-31T12:40:36.738Z,3.90
2018-12-31T12:43:03.999Z,12.37
2018-12-31T12:45:31.331Z,3.50
2018-12-31T12:47:58.700Z,3.80
2018-12-31T12:50:26.059Z,3.83
2018-12-31T12:52:53.343Z,3.60
2018-12-31T12:55:20.617Z,4.20
2018-12-31T12:57:47.979Z,4.00
2018-12-31T13:00:15.221Z,4.90
2018-12-31T13:02:42.580Z,5.70
2018-12-31T13:05:09.835Z,4.53
2018-12-31T13:07:37.615Z,3.70
2018-12-31T13:10:05.204Z,4.13
2018-12-31T13:12:32.703Z,4.10
2018-12-31T13:15:01.771Z,4.20
2018-12-31T13:17:29.151Z,4.30
2018-12-31T13:19:56.398Z,4.80
2018-12-31T13:22:23.739Z,4.03
2018-12-31T13:24:51.011Z,4.77
2018-12-31T13:27:18.387Z,4.13
2018-12-31T13:29:45.709Z,5.10
2018-12-31T13:32:13.062Z,5.77
2018-12-31T13:34:41.004Z,5.57
2018-12-31T13:37:08.340Z,5.37
2018-12-31T13:39:35.727Z,5.83
2018-12-31T13:42:03.031Z,6.33
2018-12-31T13:44:30.274Z,6.03
2018-12-31T13:46:57.551Z,5.97
2018-12-31T13:49:24.918Z,6.20
2018-12-31T13:51:52.191Z,5.10
2018-12-31T13:54:19.550Z,6.23
2018-12-31T13:56:46.951Z,5.50
2018-12-31T13:59:14.407Z,6.00
2018-12-31T14:01:41.679Z,6.43
2018-12-31T14:04:09.046Z,6.60
2018-12-31T14:06:36.319Z,6.90
2018-12-31T14:09:05.886Z,6.80
2018-12-31T14:11:33.359Z,7.03
2018-12-31T14:14:00.662Z,7.33
2018-12-31T14:16:28.115Z,6.83
2018-12-31T14:18:55.508Z,7.20
2018-12-31T14:21:22.879Z,7.07
2018-12-31T14:23:50.465Z,7.30
2018-12-31T14:26:17.726Z,7.50
2018-12-31T14:28:44.972Z,8.57
2018-12-31T14:31:12.380Z,7.20
2018-12-31T14:33:39.679Z,7.20
2018-12-31T14:36:07.053Z,6.47
2018-12-31T14:38:34.516Z,8.10
2018-12-31T14:41:01.911Z,8.33
2018-12-31T14:43:29.468Z,7.70
2018-12-31T14:45:56.836Z,7.57
2018-12-31T14:48:24.096Z,8.03
2018-12-31T14:50:51.368Z,8.90
2018-12-31T14:53:18.743Z,10.07
2018-12-31T14:55:46.012Z,10.93
2018-12-31T14:58:13.386Z,15.00
2018-12-31T15:00:40.687Z,12.30
2018-12-31T15:03:07.950Z,12.87
2018-12-31T15:05:35.446Z,12.77
2018-12-31T15:08:02.822Z,11.40
2018-12-31T15:10:30.202Z,17.23
2018-12-31T15:12:57.559Z,15.43
2018-12-31T15:15:24.930Z,16.13
2018-12-31T15:17:52.368Z,14.10
2018-12-31T15:20:19.713Z,45.33
2018-12-31T15:22:47.097Z,20.57
2018-12-31T15:25:14.771Z,45.73
2018-12-31T15:27:42.023Z,50.53
2018-12-31T15:30:09.380Z,88.27
2018-12-31T15:32:36.707Z,153.67
2018-12-31T15:35:06.335Z,95.77
2018-12-31T15:37:33.604Z,66.77
2018-12-31T15:40:00.943Z,52.33
2018-12-31T15:42:29.678Z,31.93
2018-12-31T15:44:57.146Z,49.00
2018-12-31T15:47:24.499Z,51.67
2018-12-31T15:49:51.954Z,49.70
2018-12-31T15:52:19.772Z,28.17
2018-12-31T15:54:47.242Z,18.27
2018-12-31T15:57:14.631Z,22.30
2018-12-31T15:59:41.920Z,19.37
2018-12-31T16:02:09.187Z,20.00
2018-12-31T16:04:36.434Z,28.23
2018-12-31T16:07:04.207Z,31.67
2018-12-31T16:09:31.474Z,18.30
2018-12-31T16:11:58.851Z,17.13
2018-12-31T16:14:26.227Z,14.03
2018-12-31T16:16:53.495Z,18.53
2018-12-31T16:19:20.746Z,18.77
2018-12-31T16:21:48.103Z,52.50
2018-12-31T16:24:15.355Z,36.13
2018-12-31T16:26:42.694Z,49.10
2018-12-31T16:29:10.067Z,47.73
2018-12-31T16:31:37.429Z,86.93
2018-12-31T16:34:05.058Z,111.63
2018-12-31T16:36:32.324Z,74.00
2018-12-31T16:38:59.800Z,49.17
2018-12-31T16:41:27.190Z,51.70
2018-12-31T16:43:54.600Z,34.87
2018-12-31T16:46:22.066Z,28.80
2018-12-31T16:48:49.718Z,17.53
2018-12-31T16:51:18.715Z,17.87
2018-12-31T16:53:46.079Z,22.90
2018-12-31T16:56:13.355Z,19.90
2018-12-31T16:58:40.635Z,31.83
2018-12-31T17:01:08.007Z,27.60
2018-12-31T17:03:35.663Z,22.77
2018-12-31T17:06:03.034Z,25.60
2018-12-31T17:08:30.286Z,30.37
2018-12-31T17:10:57.661Z,21.60
2018-12-31T17:13:25.035Z,21.60
2018-12-31T17:15:54.167Z,17.97
2018-12-31T17:18:21.810Z,17.77
2018-12-31T17:20:49.135Z,15.87
2018-12-31T17:23:16.501Z,13.43
2018-12-31T17:25:43.983Z,12.20
2018-12-31T17:28:11.364Z,13.43
2018-12-31T17:30:38.694Z,15.83
2018-12-31T17:33:06.043Z,29.87
2018-12-31T17:35:33.467Z,32.97
2018-12-31T17:38:00.718Z,32.60
2018-12-31T17:40:28.171Z,25.40
2018-12-31T17:42:55.691Z,36.57
2018-12-31T17:45:23.926Z,26.60
2018-12-31T17:47:51.290Z,28.77
2018-12-31T17:50:18.559Z,26.93
2018-12-31T17:52:45.822Z,23.40
2018-12-31T17:55:13.102Z,20.10
2018-12-31T17:57:40.477Z,18.80
2018-12-31T18:00:09.194Z,18.30
2018-12-31T18:02:36.479Z,18.53
2018-12-31T18:05:03.846Z,16.70
2018-12-31T18:07:31.101Z,17.20
2018-12-31T18:09:58.581Z,17.90
2018-12-31T18:12:25.863Z,22.17
2018-12-31T18:14:53.543Z,24.33
2018-12-31T18:17:20.796Z,15.37
2018-12-31T18:19:48.178Z,23.87
2018-12-31T18:22:15.558Z,22.80
2018-12-31T18:24:42.839Z,24.30
2018-12-31T18:27:10.219Z,27.30
2018-12-31T18:29:37.707Z,25.60
2018-12-31T18:32:04.956Z,41.20
2018-12-31T18:34:32.311Z,47.80
2018-12-31T18:36:59.602Z,46.50
2018-12-31T18:39:27.039Z,25.73
2018-12-31T18:41:54.687Z,31.60
2018-12-31T18:44:21.943Z,35.50
2018-12-31T18:46:50.280Z,26.43
2018-12-31T18:49:17.538Z,18.47
2018-12-31T18:51:44.805Z,15.73
2018-12-31T18:54:12.191Z,15.53
2018-12-31T18:56:39.863Z,14.90
2018-12-31T18:59:07.127Z,15.77
2018-12-31T19:01:34.631Z,15.00
2018-12-31T19:04:02.003Z,14.90
2018-12-31T19:06:29.351Z,15.30
2018-12-31T19:08:56.699Z,16.60
2018-12-31T19:11:24.268Z,16.97
2018-12-31T19:13:51.639Z,17.07
2018-12-31T19:16:18.924Z,15.70
2018-12-31T19:18:46.617Z,17.37
2018-12-31T19:21:13.999Z,15.10
2018-12-31T19:23:41.262Z,17.47
2018-12-31T19:26:08.811Z,13.67
2018-12-31T19:28:36.066Z,11.90
2018-12-31T19:31:03.487Z,12.70
2018-12-31T19:33:30.867Z,12.37
2018-12-31T19:35:58.144Z,14.97
2018-12-31T19:38:25.410Z,16.40
2018-12-31T19:40:52.662Z,16.70
2018-12-31T19:43:19.964Z,14.83
2018-12-31T19:45:47.234Z,21.27
2018-12-31T19:48:16.295Z,19.80
2018-12-31T19:50:43.667Z,16.30
2018-12-31T19:53:10.910Z,14.87
2018-12-31T19:55:38.190Z,13.93
2018-12-31T19:58:05.454Z,15.27
2018-12-31T20:00:32.731Z,17.07
2018-12-31T20:03:00.212Z,15.03
2018-12-31T20:05:27.579Z,15.80
2018-12-31T20:07:55.230Z,14.40
2018-12-31T20:10:23.596Z,13.00
2018-12-31T20:12:51.206Z,13.57
2018-12-31T20:15:18.578Z,15.20
2018-12-31T20:17:46.058Z,15.13
2018-12-31T20:20:13.549Z,14.20
2018-12-31T20:22:41.195Z,15.77
2018-12-31T20:25:08.567Z,15.10
2018-12-31T20:27:36.048Z,15.80
2018-12-31T20:30:03.974Z,15.90
2018-12-31T20:32:31.399Z,13.77
2018-12-31T20:34:58.774Z,15.97
2018-12-31T20:37:26.115Z,16.50
2018-12-31T20:39:53.670Z,13.87
2018-12-31T20:42:21.134Z,16.60
2018-12-31T20:44:48.635Z,16.70
2018-12-31T20:47:16.014Z,17.57
2018-12-31T20:49:44.702Z,15.97
2018-12-31T20:52:12.050Z,14.97
2018-12-31T20:54:39.626Z,18.13
2018-12-31T20:57:07.090Z,16.23
2018-12-31T20:59:34.475Z,16.00
2018-12-31T21:02:01.958Z,14.77
2018-12-31T21:04:29.231Z,15.50
2018-12-31T21:06:56.472Z,17.30
2018-12-31T21:09:24.147Z,15.43
2018-12-31T21:11:51.406Z,15.77
2018-12-31T21:14:18.743Z,17.67
2018-12-31T21:16:46.111Z,17.77
2018-12-31T21:19:13.383Z,15.13
2018-12-31T21:21:40.724Z,14.17
2018-12-31T21:24:08.196Z,14.77
2018-12-31T21:26:35.595Z,15.93
2018-12-31T21:29:02.976Z,14.60
2018-12-31T21:31:30.411Z,14.33
2018-12-31T21:33:57.726Z,17.30
2018-12-31T21:36:24.976Z,17.50
2018-12-31T21:38:52.539Z,17.83
2018-12-31T21:41:19.918Z,16.47
2018-12-31T21:43:47.255Z,15.07
2018-12-31T21:48:46.361Z,16.00
2018-12-31T21:51:14.694Z,15.50
2018-12-31T21:53:42.190Z,15.10
2018-12-31T21:56:09.650Z,15.33
2018-12-31T21:58:37.007Z,14.40
2018-12-31T22:01:04.379Z,15.67
2018-12-31T22:03:31.743Z,14.37
2018-12-31T22:05:59.127Z,14.90
2018-12-31T22:08:26.459Z,15.00
2018-12-31T22:10:54.132Z,14.47
2018-12-31T22:13:21.579Z,13.73
2018-12-31T22:15:48.874Z,12.90
2018-12-31T22:18:16.237Z,13.90
2018-12-31T22:20:44.016Z,13.83
2018-12-31T22:23:11.412Z,14.93
2018-12-31T22:25:38.775Z,12.87
2018-12-31T22:28:06.019Z,13.93
2018-12-31T22:30:33.378Z,12.30
2018-12-31T22:33:00.639Z,12.77
2018-12-31T22:35:28.415Z,15.40
2018-12-31T22:37:56.536Z,13.67
2018-12-31T22:40:23.967Z,14.90
2018-12-31T22:42:51.330Z,13.77
2018-12-31T22:45:18.609Z,14.67
2018-12-31T22:47:46.070Z,14.40
2018-12-31T22:50:13.750Z,12.60
2018-12-31T22:52:41.891Z,13.90
2018-12-31T22:55:09.439Z,14.50
2018-12-31T22:57:36.787Z,15.27
2018-12-31T23:00:08.371Z,15.90
2018-12-31T23:02:36.137Z,15.17
2018-12-31T23:05:04.933Z,13.50
2018-12-31T23:07:32.302Z,13.70
2018-12-31T23:10:00.175Z,14.83
2018-12-31T23:12:27.522Z,14.07
2018-12-31T23:14:55.614Z,14.67
2018-12-31T23:17:22.862Z,17.57
2018-12-31T23:19:50.152Z,16.27
2018-12-31T23:22:17.645Z,26.60
2018-12-31T23:24:45.011Z,22.50
2018-12-31T23:27:12.455Z,16.00
2018-12-31T23:29:39.823Z,15.40
2018-12-31T23:32:07.078Z,15.40
2018-12-31T23:34:34.358Z,17.30
2018-12-31T23:37:01.632Z,20.30
2018-12-31T23:39:29.003Z,17.53
2018-12-31T23:41:56.350Z,15.37
2018-12-31T23:44:25.592Z,13.70
2018-12-31T23:46:52.965Z,12.87
2018-12-31T23:49:20.337Z,12.00
2018-12-31T23:51:47.618Z,12.27
2018-12-31T23:54:14.912Z,11.00
2018-12-31T23:56:42.587Z,11.43
2018-12-31T23:59:10.258Z,13.77
